<?xml version="1.0" encoding="UTF-8" standalone="no" ?>
<gpx xmlns="http://www.topografix.com/GPX/1/1" xmlns:xsi="http://www.w3.org/2001/XMLSchema-instance" xsi:schemaLocation="http://www.topografix.com/GPX/1/1 http://www.topografix.com/GPX/1/1/gpx.xsd" version="1.1" creator="VisuGPX - https://www.visugpx.com">
  <metadata>
    <name>GR 48 GIPMB terminé-13905725</name>
    <desc><![CDATA[

]]></desc>
  </metadata>
  <trk>
    <name><![CDATA[GR 48 GIPMB terminé-13905725]]></name>
    <extensions>
      <line xmlns="http://www.topografix.com/GPX/gpx_style/0/2">
        <color>0000FF</color>
        <width>4</width>
      </line>
    </extensions>
    <trkseg>
      <trkpt lat="46.69367" lon="0.8841">
        <ele>87</ele>
        <time>2023-07-04T12:03:33Z</time>
      </trkpt>
      <trkpt lat="46.69483" lon="0.88316">
        <ele>91</ele>
        <time>2023-07-04T12:05:19Z</time>
      </trkpt>
      <trkpt lat="46.69409" lon="0.88204">
        <ele>73</ele>
        <time>2023-07-04T12:06:45Z</time>
      </trkpt>
      <trkpt lat="46.6955" lon="0.87959">
        <ele>75</ele>
        <time>2023-07-04T12:09:40Z</time>
      </trkpt>
      <trkpt lat="46.69721" lon="0.87695">
        <ele>73</ele>
        <time>2023-07-04T12:13:00Z</time>
      </trkpt>
      <trkpt lat="46.69889" lon="0.87764">
        <ele>77</ele>
        <time>2023-07-04T12:15:19Z</time>
      </trkpt>
      <trkpt lat="46.70055" lon="0.87825">
        <ele>75</ele>
        <time>2023-07-04T12:17:37Z</time>
      </trkpt>
      <trkpt lat="46.70146" lon="0.87887">
        <ele>76</ele>
        <time>2023-07-04T12:18:57Z</time>
      </trkpt>
      <trkpt lat="46.70263" lon="0.87923">
        <ele>82</ele>
        <time>2023-07-04T12:20:33Z</time>
      </trkpt>
      <trkpt lat="46.70431" lon="0.87944">
        <ele>98</ele>
        <time>2023-07-04T12:22:48Z</time>
      </trkpt>
      <trkpt lat="46.70535" lon="0.87865">
        <ele>102</ele>
        <time>2023-07-04T12:24:22Z</time>
      </trkpt>
      <trkpt lat="46.70728" lon="0.87728">
        <ele>101</ele>
        <time>2023-07-04T12:27:13Z</time>
      </trkpt>
      <trkpt lat="46.71193" lon="0.8758">
        <ele>94</ele>
        <time>2023-07-04T12:33:35Z</time>
      </trkpt>
      <trkpt lat="46.7128" lon="0.87396">
        <ele>91</ele>
        <time>2023-07-04T12:35:37Z</time>
      </trkpt>
      <trkpt lat="46.71463" lon="0.87226">
        <ele>84</ele>
        <time>2023-07-04T12:38:31Z</time>
      </trkpt>
      <trkpt lat="46.71527" lon="0.87111">
        <ele>80</ele>
        <time>2023-07-04T12:39:52Z</time>
      </trkpt>
      <trkpt lat="46.71671" lon="0.87064">
        <ele>81</ele>
        <time>2023-07-04T12:41:50Z</time>
      </trkpt>
      <trkpt lat="46.71693" lon="0.86818">
        <ele>73</ele>
        <time>2023-07-04T12:44:07Z</time>
      </trkpt>
      <trkpt lat="46.71772" lon="0.86584">
        <ele>65</ele>
        <time>2023-07-04T12:46:30Z</time>
      </trkpt>
      <trkpt lat="46.72074" lon="0.86548">
        <ele>64</ele>
        <time>2023-07-04T12:50:32Z</time>
      </trkpt>
      <trkpt lat="46.72128" lon="0.86227">
        <ele>75</ele>
        <time>2023-07-04T12:53:34Z</time>
      </trkpt>
      <trkpt lat="46.71987" lon="0.86144">
        <ele>77</ele>
        <time>2023-07-04T12:55:36Z</time>
      </trkpt>
      <trkpt lat="46.71958" lon="0.86266">
        <ele>70</ele>
        <time>2023-07-04T12:56:46Z</time>
      </trkpt>
      <trkpt lat="46.71794" lon="0.86403">
        <ele>64</ele>
        <time>2023-07-04T12:59:18Z</time>
      </trkpt>
      <trkpt lat="46.71688" lon="0.86385">
        <ele>64</ele>
        <time>2023-07-04T13:00:43Z</time>
      </trkpt>
      <trkpt lat="46.71431" lon="0.86432">
        <ele>65</ele>
        <time>2023-07-04T13:04:11Z</time>
      </trkpt>
      <trkpt lat="46.71347" lon="0.861">
        <ele>63</ele>
        <time>2023-07-04T13:07:25Z</time>
      </trkpt>
      <trkpt lat="46.71201" lon="0.861">
        <ele>65</ele>
        <time>2023-07-04T13:09:22Z</time>
      </trkpt>
      <trkpt lat="46.71186" lon="0.8597">
        <ele>65</ele>
        <time>2023-07-04T13:10:34Z</time>
      </trkpt>
      <trkpt lat="46.71265" lon="0.85768">
        <ele>70</ele>
        <time>2023-07-04T13:12:42Z</time>
      </trkpt>
      <trkpt lat="46.71342" lon="0.85609">
        <ele>76</ele>
        <time>2023-07-04T13:14:29Z</time>
      </trkpt>
      <trkpt lat="46.71347" lon="0.85487">
        <ele>77</ele>
        <time>2023-07-04T13:15:36Z</time>
      </trkpt>
      <trkpt lat="46.71522" lon="0.85447">
        <ele>78</ele>
        <time>2023-07-04T13:17:58Z</time>
      </trkpt>
      <trkpt lat="46.7149" lon="0.85339">
        <ele>83</ele>
        <time>2023-07-04T13:19:02Z</time>
      </trkpt>
      <trkpt lat="46.71334" lon="0.85288">
        <ele>89</ele>
        <time>2023-07-04T13:21:10Z</time>
      </trkpt>
      <trkpt lat="46.71193" lon="0.85119">
        <ele>98</ele>
        <time>2023-07-04T13:23:36Z</time>
      </trkpt>
      <trkpt lat="46.7101" lon="0.84978">
        <ele>109</ele>
        <time>2023-07-04T13:26:22Z</time>
      </trkpt>
      <trkpt lat="46.70854" lon="0.84938">
        <ele>108</ele>
        <time>2023-07-04T13:28:29Z</time>
      </trkpt>
      <trkpt lat="46.70854" lon="0.84805">
        <ele>108</ele>
        <time>2023-07-04T13:29:42Z</time>
      </trkpt>
      <trkpt lat="46.70876" lon="0.84668">
        <ele>115</ele>
        <time>2023-07-04T13:30:59Z</time>
      </trkpt>
      <trkpt lat="46.70884" lon="0.84484">
        <ele>122</ele>
        <time>2023-07-04T13:32:40Z</time>
      </trkpt>
      <trkpt lat="46.7097" lon="0.84231">
        <ele>131</ele>
        <time>2023-07-04T13:35:15Z</time>
      </trkpt>
      <trkpt lat="46.71129" lon="0.84108">
        <ele>136</ele>
        <time>2023-07-04T13:37:40Z</time>
      </trkpt>
      <trkpt lat="46.71245" lon="0.84097">
        <ele>137</ele>
        <time>2023-07-04T13:39:13Z</time>
      </trkpt>
      <trkpt lat="46.71554" lon="0.83726">
        <ele>131</ele>
        <time>2023-07-04T13:44:33Z</time>
      </trkpt>
      <trkpt lat="46.71604" lon="0.83506">
        <ele>129</ele>
        <time>2023-07-04T13:46:40Z</time>
      </trkpt>
      <trkpt lat="46.71728" lon="0.83271">
        <ele>121</ele>
        <time>2023-07-04T13:49:23Z</time>
      </trkpt>
      <trkpt lat="46.71891" lon="0.83217">
        <ele>108</ele>
        <time>2023-07-04T13:51:37Z</time>
      </trkpt>
      <trkpt lat="46.72032" lon="0.83332">
        <ele>102</ele>
        <time>2023-07-04T13:53:46Z</time>
      </trkpt>
      <trkpt lat="46.72504" lon="0.82986">
        <ele>109</ele>
        <time>2023-07-04T14:00:49Z</time>
      </trkpt>
      <trkpt lat="46.72638" lon="0.82881">
        <ele>125</ele>
        <time>2023-07-04T14:02:51Z</time>
      </trkpt>
      <trkpt lat="46.72715" lon="0.83033">
        <ele>130</ele>
        <time>2023-07-04T14:04:35Z</time>
      </trkpt>
      <trkpt lat="46.72945" lon="0.83112">
        <ele>132</ele>
        <time>2023-07-04T14:07:44Z</time>
      </trkpt>
      <trkpt lat="46.73014" lon="0.82917">
        <ele>129</ele>
        <time>2023-07-04T14:09:44Z</time>
      </trkpt>
      <trkpt lat="46.73076" lon="0.82838">
        <ele>124</ele>
        <time>2023-07-04T14:10:50Z</time>
      </trkpt>
      <trkpt lat="46.73246" lon="0.82795">
        <ele>115</ele>
        <time>2023-07-04T14:13:08Z</time>
      </trkpt>
      <trkpt lat="46.73301" lon="0.82538">
        <ele>111</ele>
        <time>2023-07-04T14:15:36Z</time>
      </trkpt>
      <trkpt lat="46.73558" lon="0.82722">
        <ele>107</ele>
        <time>2023-07-04T14:19:25Z</time>
      </trkpt>
      <trkpt lat="46.73702" lon="0.82589">
        <ele>89</ele>
        <time>2023-07-04T14:21:42Z</time>
      </trkpt>
      <trkpt lat="46.73763" lon="0.82708">
        <ele>86</ele>
        <time>2023-07-04T14:23:03Z</time>
      </trkpt>
      <trkpt lat="46.73976" lon="0.82654">
        <ele>81</ele>
        <time>2023-07-04T14:25:56Z</time>
      </trkpt>
      <trkpt lat="46.74023" lon="0.82917">
        <ele>80</ele>
        <time>2023-07-04T14:28:26Z</time>
      </trkpt>
      <trkpt lat="46.74097" lon="0.83112">
        <ele>76</ele>
        <time>2023-07-04T14:30:28Z</time>
      </trkpt>
      <trkpt lat="46.74372" lon="0.83469">
        <ele>74</ele>
        <time>2023-07-04T14:35:23Z</time>
      </trkpt>
      <trkpt lat="46.74483" lon="0.83552">
        <ele>78</ele>
        <time>2023-07-04T14:37:02Z</time>
      </trkpt>
      <trkpt lat="46.74651" lon="0.8356">
        <ele>87</ele>
        <time>2023-07-04T14:39:17Z</time>
      </trkpt>
      <trkpt lat="46.74703" lon="0.83329">
        <ele>94</ele>
        <time>2023-07-04T14:41:30Z</time>
      </trkpt>
      <trkpt lat="46.74659" lon="0.83022">
        <ele>106</ele>
        <time>2023-07-04T14:44:23Z</time>
      </trkpt>
      <trkpt lat="46.74884" lon="0.82856">
        <ele>107</ele>
        <time>2023-07-04T14:47:44Z</time>
      </trkpt>
      <trkpt lat="46.74975" lon="0.82733">
        <ele>102</ele>
        <time>2023-07-04T14:49:24Z</time>
      </trkpt>
      <trkpt lat="46.74983" lon="0.82571">
        <ele>103</ele>
        <time>2023-07-04T14:50:53Z</time>
      </trkpt>
      <trkpt lat="46.75069" lon="0.82387">
        <ele>100</ele>
        <time>2023-07-04T14:52:55Z</time>
      </trkpt>
      <trkpt lat="46.75213" lon="0.82347">
        <ele>98</ele>
        <time>2023-07-04T14:54:52Z</time>
      </trkpt>
      <trkpt lat="46.75272" lon="0.82268">
        <ele>95</ele>
        <time>2023-07-04T14:55:57Z</time>
      </trkpt>
      <trkpt lat="46.7548" lon="0.8225">
        <ele>84</ele>
        <time>2023-07-04T14:58:43Z</time>
      </trkpt>
      <trkpt lat="46.75566" lon="0.82455">
        <ele>81</ele>
        <time>2023-07-04T15:00:55Z</time>
      </trkpt>
      <trkpt lat="46.75685" lon="0.82398">
        <ele>81</ele>
        <time>2023-07-04T15:02:35Z</time>
      </trkpt>
      <trkpt lat="46.75779" lon="0.82315">
        <ele>79</ele>
        <time>2023-07-04T15:04:03Z</time>
      </trkpt>
      <trkpt lat="46.75897" lon="0.82268">
        <ele>79</ele>
        <time>2023-07-04T15:05:41Z</time>
      </trkpt>
      <trkpt lat="46.76011" lon="0.8195">
        <ele>85</ele>
        <time>2023-07-04T15:08:58Z</time>
      </trkpt>
      <trkpt lat="46.76075" lon="0.81654">
        <ele>96</ele>
        <time>2023-07-04T15:11:48Z</time>
      </trkpt>
      <trkpt lat="46.76016" lon="0.81503">
        <ele>97</ele>
        <time>2023-07-04T15:13:24Z</time>
      </trkpt>
      <trkpt lat="46.76023" lon="0.81366">
        <ele>101</ele>
        <time>2023-07-04T15:14:39Z</time>
      </trkpt>
      <trkpt lat="46.76283" lon="0.81001">
        <ele>127</ele>
        <time>2023-07-04T15:19:28Z</time>
      </trkpt>
      <trkpt lat="46.76379" lon="0.80951">
        <ele>133</ele>
        <time>2023-07-04T15:20:50Z</time>
      </trkpt>
      <trkpt lat="46.76535" lon="0.8072">
        <ele>137</ele>
        <time>2023-07-04T15:23:48Z</time>
      </trkpt>
      <trkpt lat="46.76824" lon="0.80987">
        <ele>135</ele>
        <time>2023-07-04T15:28:21Z</time>
      </trkpt>
      <trkpt lat="46.77079" lon="0.81145">
        <ele>134</ele>
        <time>2023-07-04T15:32:03Z</time>
      </trkpt>
      <trkpt lat="46.77326" lon="0.81196">
        <ele>120</ele>
        <time>2023-07-04T15:35:23Z</time>
      </trkpt>
      <trkpt lat="46.77516" lon="0.81257">
        <ele>112</ele>
        <time>2023-07-04T15:37:59Z</time>
      </trkpt>
      <trkpt lat="46.77662" lon="0.81355">
        <ele>104</ele>
        <time>2023-07-04T15:40:07Z</time>
      </trkpt>
      <trkpt lat="46.7787" lon="0.81431">
        <ele>103</ele>
        <time>2023-07-04T15:42:59Z</time>
      </trkpt>
      <trkpt lat="46.78068" lon="0.8134">
        <ele>101</ele>
        <time>2023-07-04T15:45:45Z</time>
      </trkpt>
      <trkpt lat="46.78206" lon="0.81532">
        <ele>103</ele>
        <time>2023-07-04T15:48:18Z</time>
      </trkpt>
      <trkpt lat="46.78441" lon="0.81726">
        <ele>85</ele>
        <time>2023-07-04T15:51:54Z</time>
      </trkpt>
      <trkpt lat="46.78507" lon="0.81828">
        <ele>72</ele>
        <time>2023-07-04T15:53:11Z</time>
      </trkpt>
      <trkpt lat="46.78451" lon="0.81914">
        <ele>72</ele>
        <time>2023-07-04T15:54:16Z</time>
      </trkpt>
      <trkpt lat="46.78414" lon="0.82069">
        <ele>67</ele>
        <time>2023-07-04T15:55:46Z</time>
      </trkpt>
      <trkpt lat="46.78698" lon="0.82156">
        <ele>60</ele>
        <time>2023-07-04T15:59:38Z</time>
      </trkpt>
      <trkpt lat="46.78725" lon="0.82239">
        <ele>60</ele>
        <time>2023-07-04T16:00:29Z</time>
      </trkpt>
      <trkpt lat="46.78908" lon="0.82441">
        <ele>59</ele>
        <time>2023-07-04T16:03:32Z</time>
      </trkpt>
      <trkpt lat="46.78858" lon="0.82289">
        <ele>56</ele>
        <time>2023-07-04T16:05:05Z</time>
      </trkpt>
      <trkpt lat="46.78861" lon="0.82149">
        <ele>56</ele>
        <time>2023-07-04T16:06:22Z</time>
      </trkpt>
      <trkpt lat="46.78853" lon="0.8195">
        <ele>57</ele>
        <time>2023-07-04T16:08:11Z</time>
      </trkpt>
      <trkpt lat="46.78947" lon="0.81791">
        <ele>59</ele>
        <time>2023-07-04T16:10:06Z</time>
      </trkpt>
      <trkpt lat="46.79093" lon="0.81947">
        <ele>59</ele>
        <time>2023-07-04T16:12:31Z</time>
      </trkpt>
      <trkpt lat="46.79167" lon="0.81867">
        <ele>58</ele>
        <time>2023-07-04T16:13:45Z</time>
      </trkpt>
      <trkpt lat="46.79345" lon="0.81896">
        <ele>58</ele>
        <time>2023-07-04T16:16:08Z</time>
      </trkpt>
      <trkpt lat="46.7959" lon="0.81943">
        <ele>58</ele>
        <time>2023-07-04T16:19:26Z</time>
      </trkpt>
      <trkpt lat="46.80086" lon="0.81777">
        <ele>58</ele>
        <time>2023-07-04T16:26:13Z</time>
      </trkpt>
      <trkpt lat="46.80311" lon="0.81752">
        <ele>58</ele>
        <time>2023-07-04T16:29:14Z</time>
      </trkpt>
      <trkpt lat="46.80531" lon="0.81864">
        <ele>58</ele>
        <time>2023-07-04T16:32:20Z</time>
      </trkpt>
      <trkpt lat="46.80657" lon="0.82015">
        <ele>59</ele>
        <time>2023-07-04T16:34:31Z</time>
      </trkpt>
      <trkpt lat="46.80951" lon="0.81882">
        <ele>59</ele>
        <time>2023-07-04T16:38:37Z</time>
      </trkpt>
      <trkpt lat="46.81195" lon="0.8182">
        <ele>59</ele>
        <time>2023-07-04T16:41:56Z</time>
      </trkpt>
      <trkpt lat="46.81514" lon="0.81882">
        <ele>60</ele>
        <time>2023-07-04T16:46:13Z</time>
      </trkpt>
      <trkpt lat="46.81751" lon="0.81828">
        <ele>58</ele>
        <time>2023-07-04T16:49:25Z</time>
      </trkpt>
      <trkpt lat="46.81914" lon="0.82409">
        <ele>66</ele>
        <time>2023-07-04T16:55:09Z</time>
      </trkpt>
      <trkpt lat="46.81966" lon="0.82585">
        <ele>71</ele>
        <time>2023-07-04T16:56:55Z</time>
      </trkpt>
      <trkpt lat="46.82111" lon="0.82571">
        <ele>71</ele>
        <time>2023-07-04T16:58:51Z</time>
      </trkpt>
      <trkpt lat="46.82151" lon="0.826">
        <ele>74</ele>
        <time>2023-07-04T16:59:27Z</time>
      </trkpt>
      <trkpt lat="46.82334" lon="0.82535">
        <ele>69</ele>
        <time>2023-07-04T17:01:57Z</time>
      </trkpt>
      <trkpt lat="46.82492" lon="0.82423">
        <ele>71</ele>
        <time>2023-07-04T17:04:18Z</time>
      </trkpt>
      <trkpt lat="46.82595" lon="0.8238">
        <ele>71</ele>
        <time>2023-07-04T17:05:44Z</time>
      </trkpt>
      <trkpt lat="46.82689" lon="0.82423">
        <ele>73</ele>
        <time>2023-07-04T17:07:03Z</time>
      </trkpt>
      <trkpt lat="46.8283" lon="0.82358">
        <ele>72</ele>
        <time>2023-07-04T17:09:01Z</time>
      </trkpt>
      <trkpt lat="46.83042" lon="0.82221">
        <ele>68</ele>
        <time>2023-07-04T17:12:07Z</time>
      </trkpt>
      <trkpt lat="46.83168" lon="0.8216">
        <ele>66</ele>
        <time>2023-07-04T17:13:53Z</time>
      </trkpt>
      <trkpt lat="46.83215" lon="0.82369">
        <ele>80</ele>
        <time>2023-07-04T17:15:53Z</time>
      </trkpt>
      <trkpt lat="46.83227" lon="0.82593">
        <ele>89</ele>
        <time>2023-07-04T17:17:56Z</time>
      </trkpt>
      <trkpt lat="46.83314" lon="0.82748">
        <ele>102</ele>
        <time>2023-07-04T17:19:46Z</time>
      </trkpt>
      <trkpt lat="46.8346" lon="0.82845">
        <ele>122</ele>
        <time>2023-07-04T17:21:55Z</time>
      </trkpt>
      <trkpt lat="46.8362" lon="0.83004">
        <ele>132</ele>
        <time>2023-07-04T17:24:30Z</time>
      </trkpt>
      <trkpt lat="46.83731" lon="0.8322">
        <ele>135</ele>
        <time>2023-07-04T17:26:58Z</time>
      </trkpt>
      <trkpt lat="46.83896" lon="0.83397">
        <ele>132</ele>
        <time>2023-07-04T17:29:41Z</time>
      </trkpt>
      <trkpt lat="46.84225" lon="0.83289">
        <ele>126</ele>
        <time>2023-07-04T17:34:11Z</time>
      </trkpt>
      <trkpt lat="46.84346" lon="0.83343">
        <ele>128</ele>
        <time>2023-07-04T17:35:53Z</time>
      </trkpt>
      <trkpt lat="46.84425" lon="0.83076">
        <ele>130</ele>
        <time>2023-07-04T17:38:32Z</time>
      </trkpt>
      <trkpt lat="46.84447" lon="0.82824">
        <ele>131</ele>
        <time>2023-07-04T17:40:51Z</time>
      </trkpt>
      <trkpt lat="46.8463" lon="0.82614">
        <ele>130</ele>
        <time>2023-07-04T17:43:57Z</time>
      </trkpt>
      <trkpt lat="46.84696" lon="0.82517">
        <ele>127</ele>
        <time>2023-07-04T17:45:12Z</time>
      </trkpt>
      <trkpt lat="46.84825" lon="0.82492">
        <ele>124</ele>
        <time>2023-07-04T17:46:57Z</time>
      </trkpt>
      <trkpt lat="46.84948" lon="0.82441">
        <ele>121</ele>
        <time>2023-07-04T17:48:39Z</time>
      </trkpt>
      <trkpt lat="46.85017" lon="0.82495">
        <ele>119</ele>
        <time>2023-07-04T17:49:42Z</time>
      </trkpt>
      <trkpt lat="46.85025" lon="0.82658">
        <ele>121</ele>
        <time>2023-07-04T17:51:11Z</time>
      </trkpt>
      <trkpt lat="46.85113" lon="0.82849">
        <ele>125</ele>
        <time>2023-07-04T17:53:17Z</time>
      </trkpt>
      <trkpt lat="46.85141" lon="0.83073">
        <ele>131</ele>
        <time>2023-07-04T17:55:22Z</time>
      </trkpt>
      <trkpt lat="46.85331" lon="0.8326">
        <ele>131</ele>
        <time>2023-07-04T17:58:25Z</time>
      </trkpt>
      <trkpt lat="46.85624" lon="0.83408">
        <ele>131</ele>
        <time>2023-07-04T18:02:33Z</time>
      </trkpt>
      <trkpt lat="46.85651" lon="0.83856">
        <ele>121</ele>
        <time>2023-07-04T18:06:40Z</time>
      </trkpt>
      <trkpt lat="46.85891" lon="0.83881">
        <ele>105</ele>
        <time>2023-07-04T18:09:52Z</time>
      </trkpt>
      <trkpt lat="46.86061" lon="0.83986">
        <ele>97</ele>
        <time>2023-07-04T18:12:20Z</time>
      </trkpt>
      <trkpt lat="46.86157" lon="0.84148">
        <ele>95</ele>
        <time>2023-07-04T18:14:17Z</time>
      </trkpt>
      <trkpt lat="46.86303" lon="0.84382">
        <ele>93</ele>
        <time>2023-07-04T18:17:11Z</time>
      </trkpt>
      <trkpt lat="46.8632" lon="0.84502">
        <ele>91</ele>
        <time>2023-07-04T18:18:18Z</time>
      </trkpt>
      <trkpt lat="46.86382" lon="0.84567">
        <ele>84</ele>
        <time>2023-07-04T18:19:19Z</time>
      </trkpt>
      <trkpt lat="46.86468" lon="0.84671">
        <ele>78</ele>
        <time>2023-07-04T18:20:48Z</time>
      </trkpt>
      <trkpt lat="46.86648" lon="0.84787">
        <ele>87</ele>
        <time>2023-07-04T18:23:26Z</time>
      </trkpt>
      <trkpt lat="46.86809" lon="0.84971">
        <ele>89</ele>
        <time>2023-07-04T18:26:09Z</time>
      </trkpt>
      <trkpt lat="46.87134" lon="0.85191">
        <ele>73</ele>
        <time>2023-07-04T18:30:56Z</time>
      </trkpt>
      <trkpt lat="46.87018" lon="0.85447">
        <ele>77</ele>
        <time>2023-07-04T18:33:44Z</time>
      </trkpt>
      <trkpt lat="46.86952" lon="0.85747">
        <ele>78</ele>
        <time>2023-07-04T18:36:37Z</time>
      </trkpt>
      <trkpt lat="46.86915" lon="0.86097">
        <ele>72</ele>
        <time>2023-07-04T18:39:51Z</time>
      </trkpt>
      <trkpt lat="46.87191" lon="0.86302">
        <ele>71</ele>
        <time>2023-07-04T18:43:59Z</time>
      </trkpt>
      <trkpt lat="46.87295" lon="0.86093">
        <ele>69</ele>
        <time>2023-07-04T18:46:20Z</time>
      </trkpt>
      <trkpt lat="46.87635" lon="0.86396">
        <ele>110</ele>
        <time>2023-07-04T18:51:39Z</time>
      </trkpt>
      <trkpt lat="46.87751" lon="0.86454">
        <ele>123</ele>
        <time>2023-07-04T18:53:17Z</time>
      </trkpt>
      <trkpt lat="46.87909" lon="0.86212">
        <ele>127</ele>
        <time>2023-07-04T18:56:20Z</time>
      </trkpt>
      <trkpt lat="46.88077" lon="0.86302">
        <ele>124</ele>
        <time>2023-07-04T18:58:43Z</time>
      </trkpt>
      <trkpt lat="46.88225" lon="0.8623">
        <ele>127</ele>
        <time>2023-07-04T19:00:48Z</time>
      </trkpt>
      <trkpt lat="46.88466" lon="0.86241">
        <ele>116</ele>
        <time>2023-07-04T19:04:01Z</time>
      </trkpt>
      <trkpt lat="46.88597" lon="0.86292">
        <ele>96</ele>
        <time>2023-07-04T19:05:50Z</time>
      </trkpt>
      <trkpt lat="46.88696" lon="0.86158">
        <ele>88</ele>
        <time>2023-07-04T19:07:38Z</time>
      </trkpt>
      <trkpt lat="46.88895" lon="0.8627">
        <ele>78</ele>
        <time>2023-07-04T19:10:29Z</time>
      </trkpt>
      <trkpt lat="46.88883" lon="0.86378">
        <ele>81</ele>
        <time>2023-07-04T19:11:28Z</time>
      </trkpt>
      <trkpt lat="46.88895" lon="0.86512">
        <ele>96</ele>
        <time>2023-07-04T19:12:42Z</time>
      </trkpt>
      <trkpt lat="46.88844" lon="0.86591">
        <ele>102</ele>
        <time>2023-07-04T19:13:42Z</time>
      </trkpt>
      <trkpt lat="46.88888" lon="0.86688">
        <ele>112</ele>
        <time>2023-07-04T19:14:46Z</time>
      </trkpt>
      <trkpt lat="46.89058" lon="0.86854">
        <ele>122</ele>
        <time>2023-07-04T19:17:29Z</time>
      </trkpt>
      <trkpt lat="46.89534" lon="0.86894">
        <ele>130</ele>
        <time>2023-07-04T19:23:51Z</time>
      </trkpt>
      <trkpt lat="46.89591" lon="0.86663">
        <ele>130</ele>
        <time>2023-07-04T19:26:05Z</time>
      </trkpt>
      <trkpt lat="46.89559" lon="0.86317">
        <ele>131</ele>
        <time>2023-07-04T19:29:16Z</time>
      </trkpt>
      <trkpt lat="46.89566" lon="0.85801">
        <ele>133</ele>
        <time>2023-07-04T19:33:59Z</time>
      </trkpt>
      <trkpt lat="46.89588" lon="0.85653">
        <ele>135</ele>
        <time>2023-07-04T19:35:22Z</time>
      </trkpt>
      <trkpt lat="46.8964" lon="0.85436">
        <ele>128</ele>
        <time>2023-07-04T19:37:27Z</time>
      </trkpt>
      <trkpt lat="46.89921" lon="0.84906">
        <ele>118</ele>
        <time>2023-07-04T19:43:34Z</time>
      </trkpt>
      <trkpt lat="46.90089" lon="0.84751">
        <ele>112</ele>
        <time>2023-07-04T19:46:13Z</time>
      </trkpt>
      <trkpt lat="46.90343" lon="0.84249">
        <ele>96</ele>
        <time>2023-07-04T19:51:55Z</time>
      </trkpt>
      <trkpt lat="46.90562" lon="0.83397">
        <ele>83</ele>
        <time>2023-07-04T20:00:13Z</time>
      </trkpt>
      <trkpt lat="46.90617" lon="0.83127">
        <ele>89</ele>
        <time>2023-07-04T20:02:47Z</time>
      </trkpt>
      <trkpt lat="46.90656" lon="0.82849">
        <ele>95</ele>
        <time>2023-07-04T20:05:23Z</time>
      </trkpt>
      <trkpt lat="46.90745" lon="0.82643">
        <ele>94</ele>
        <time>2023-07-04T20:07:36Z</time>
      </trkpt>
      <trkpt lat="46.90839" lon="0.82394">
        <ele>95</ele>
        <time>2023-07-04T20:10:11Z</time>
      </trkpt>
      <trkpt lat="46.90903" lon="0.82138">
        <ele>92</ele>
        <time>2023-07-04T20:12:41Z</time>
      </trkpt>
      <trkpt lat="46.90984" lon="0.81925">
        <ele>95</ele>
        <time>2023-07-04T20:14:54Z</time>
      </trkpt>
      <trkpt lat="46.90967" lon="0.81651">
        <ele>90</ele>
        <time>2023-07-04T20:17:24Z</time>
      </trkpt>
      <trkpt lat="46.90977" lon="0.81474">
        <ele>92</ele>
        <time>2023-07-04T20:19:02Z</time>
      </trkpt>
      <trkpt lat="46.90999" lon="0.8134">
        <ele>94</ele>
        <time>2023-07-04T20:20:17Z</time>
      </trkpt>
      <trkpt lat="46.91038" lon="0.81138">
        <ele>92</ele>
        <time>2023-07-04T20:22:12Z</time>
      </trkpt>
      <trkpt lat="46.91211" lon="0.80882">
        <ele>74</ele>
        <time>2023-07-04T20:25:29Z</time>
      </trkpt>
      <trkpt lat="46.91223" lon="0.80705">
        <ele>71</ele>
        <time>2023-07-04T20:27:06Z</time>
      </trkpt>
      <trkpt lat="46.91354" lon="0.80611">
        <ele>70</ele>
        <time>2023-07-04T20:29:03Z</time>
      </trkpt>
      <trkpt lat="46.91465" lon="0.80644">
        <ele>68</ele>
        <time>2023-07-04T20:30:33Z</time>
      </trkpt>
      <trkpt lat="46.91622" lon="0.80525">
        <ele>63</ele>
        <time>2023-07-04T20:32:55Z</time>
      </trkpt>
      <trkpt lat="46.91834" lon="0.80629">
        <ele>61</ele>
        <time>2023-07-04T20:35:54Z</time>
      </trkpt>
      <trkpt lat="46.91901" lon="0.80536">
        <ele>61</ele>
        <time>2023-07-04T20:37:08Z</time>
      </trkpt>
      <trkpt lat="46.92024" lon="0.80355">
        <ele>66</ele>
        <time>2023-07-04T20:39:28Z</time>
      </trkpt>
      <trkpt lat="46.92017" lon="0.80204">
        <ele>66</ele>
        <time>2023-07-04T20:40:50Z</time>
      </trkpt>
      <trkpt lat="46.92032" lon="0.79962">
        <ele>65</ele>
        <time>2023-07-04T20:43:03Z</time>
      </trkpt>
      <trkpt lat="46.92061" lon="0.79771">
        <ele>61</ele>
        <time>2023-07-04T20:44:50Z</time>
      </trkpt>
      <trkpt lat="46.91985" lon="0.7946">
        <ele>58</ele>
        <time>2023-07-04T20:47:51Z</time>
      </trkpt>
      <trkpt lat="46.92298" lon="0.79193">
        <ele>60</ele>
        <time>2023-07-04T20:52:41Z</time>
      </trkpt>
      <trkpt lat="46.92436" lon="0.7893">
        <ele>59</ele>
        <time>2023-07-04T20:55:42Z</time>
      </trkpt>
      <trkpt lat="46.92497" lon="0.78486">
        <ele>58</ele>
        <time>2023-07-04T20:59:50Z</time>
      </trkpt>
      <trkpt lat="46.9249" lon="0.78085">
        <ele>58</ele>
        <time>2023-07-04T21:03:29Z</time>
      </trkpt>
      <trkpt lat="46.92488" lon="0.77742">
        <ele>58</ele>
        <time>2023-07-04T21:06:37Z</time>
      </trkpt>
      <trkpt lat="46.9251" lon="0.77566">
        <ele>59</ele>
        <time>2023-07-04T21:08:15Z</time>
      </trkpt>
      <trkpt lat="46.92512" lon="0.77421">
        <ele>65</ele>
        <time>2023-07-04T21:09:34Z</time>
      </trkpt>
      <trkpt lat="46.92426" lon="0.77259">
        <ele>66</ele>
        <time>2023-07-04T21:11:26Z</time>
      </trkpt>
      <trkpt lat="46.92406" lon="0.77172">
        <ele>68</ele>
        <time>2023-07-04T21:12:16Z</time>
      </trkpt>
      <trkpt lat="46.91926" lon="0.76912">
        <ele>77</ele>
        <time>2023-07-04T21:19:06Z</time>
      </trkpt>
      <trkpt lat="46.92202" lon="0.76497">
        <ele>91</ele>
        <time>2023-07-04T21:24:23Z</time>
      </trkpt>
      <trkpt lat="46.92032" lon="0.76281">
        <ele>101</ele>
        <time>2023-07-04T21:27:23Z</time>
      </trkpt>
      <trkpt lat="46.91866" lon="0.7614">
        <ele>104</ele>
        <time>2023-07-04T21:29:57Z</time>
      </trkpt>
      <trkpt lat="46.91733" lon="0.76046">
        <ele>107</ele>
        <time>2023-07-04T21:31:55Z</time>
      </trkpt>
      <trkpt lat="46.91632" lon="0.75906">
        <ele>110</ele>
        <time>2023-07-04T21:33:46Z</time>
      </trkpt>
      <trkpt lat="46.91563" lon="0.75732">
        <ele>114</ele>
        <time>2023-07-04T21:35:37Z</time>
      </trkpt>
      <trkpt lat="46.91467" lon="0.75545">
        <ele>116</ele>
        <time>2023-07-04T21:37:44Z</time>
      </trkpt>
      <trkpt lat="46.91751" lon="0.75224">
        <ele>98</ele>
        <time>2023-07-04T21:42:32Z</time>
      </trkpt>
      <trkpt lat="46.91519" lon="0.74762">
        <ele>108</ele>
        <time>2023-07-04T21:47:45Z</time>
      </trkpt>
      <trkpt lat="46.91504" lon="0.74394">
        <ele>109</ele>
        <time>2023-07-04T21:51:07Z</time>
      </trkpt>
      <trkpt lat="46.91704" lon="0.74033">
        <ele>112</ele>
        <time>2023-07-04T21:55:21Z</time>
      </trkpt>
      <trkpt lat="46.92111" lon="0.7313">
        <ele>104</ele>
        <time>2023-07-04T22:05:13Z</time>
      </trkpt>
      <trkpt lat="46.92465" lon="0.72954">
        <ele>93</ele>
        <time>2023-07-04T22:10:12Z</time>
      </trkpt>
      <trkpt lat="46.92778" lon="0.72939">
        <ele>97</ele>
        <time>2023-07-04T22:14:23Z</time>
      </trkpt>
      <trkpt lat="46.93183" lon="0.73264">
        <ele>81</ele>
        <time>2023-07-04T22:20:33Z</time>
      </trkpt>
      <trkpt lat="46.93431" lon="0.73354">
        <ele>60</ele>
        <time>2023-07-04T22:23:57Z</time>
      </trkpt>
      <trkpt lat="46.93614" lon="0.72997">
        <ele>54</ele>
        <time>2023-07-04T22:28:01Z</time>
      </trkpt>
      <trkpt lat="46.93722" lon="0.72484">
        <ele>53</ele>
        <time>2023-07-04T22:32:55Z</time>
      </trkpt>
      <trkpt lat="46.94102" lon="0.72723">
        <ele>62</ele>
        <time>2023-07-04T22:38:26Z</time>
      </trkpt>
      <trkpt lat="46.94225" lon="0.72398">
        <ele>74</ele>
        <time>2023-07-04T22:41:49Z</time>
      </trkpt>
      <trkpt lat="46.94323" lon="0.72365">
        <ele>80</ele>
        <time>2023-07-04T22:43:10Z</time>
      </trkpt>
      <trkpt lat="46.94378" lon="0.72322">
        <ele>79</ele>
        <time>2023-07-04T22:44:00Z</time>
      </trkpt>
      <trkpt lat="46.94498" lon="0.723">
        <ele>77</ele>
        <time>2023-07-04T22:45:36Z</time>
      </trkpt>
      <trkpt lat="46.94553" lon="0.72232">
        <ele>73</ele>
        <time>2023-07-04T22:46:34Z</time>
      </trkpt>
      <trkpt lat="46.94703" lon="0.72163">
        <ele>78</ele>
        <time>2023-07-04T22:48:40Z</time>
      </trkpt>
      <trkpt lat="46.94888" lon="0.72661">
        <ele>83</ele>
        <time>2023-07-04T22:53:50Z</time>
      </trkpt>
      <trkpt lat="46.94929" lon="0.73019">
        <ele>88</ele>
        <time>2023-07-04T22:57:08Z</time>
      </trkpt>
      <trkpt lat="46.95173" lon="0.73066">
        <ele>101</ele>
        <time>2023-07-04T23:00:25Z</time>
      </trkpt>
      <trkpt lat="46.95602" lon="0.72838">
        <ele>105</ele>
        <time>2023-07-04T23:06:31Z</time>
      </trkpt>
      <trkpt lat="46.95769" lon="0.72528">
        <ele>110</ele>
        <time>2023-07-04T23:10:06Z</time>
      </trkpt>
      <trkpt lat="46.9604" lon="0.71593">
        <ele>104</ele>
        <time>2023-07-04T23:19:22Z</time>
      </trkpt>
      <trkpt lat="46.96144" lon="0.71167">
        <ele>87</ele>
        <time>2023-07-04T23:23:29Z</time>
      </trkpt>
      <trkpt lat="46.96299" lon="0.70918">
        <ele>69</ele>
        <time>2023-07-04T23:26:33Z</time>
      </trkpt>
      <trkpt lat="46.96289" lon="0.70673">
        <ele>55</ele>
        <time>2023-07-04T23:28:47Z</time>
      </trkpt>
      <trkpt lat="46.96311" lon="0.70529">
        <ele>54</ele>
        <time>2023-07-04T23:30:08Z</time>
      </trkpt>
      <trkpt lat="46.96225" lon="0.70521">
        <ele>53</ele>
        <time>2023-07-04T23:31:17Z</time>
      </trkpt>
      <trkpt lat="46.96168" lon="0.70175">
        <ele>46</ele>
        <time>2023-07-04T23:34:31Z</time>
      </trkpt>
      <trkpt lat="46.96124" lon="0.69655">
        <ele>46</ele>
        <time>2023-07-04T23:39:18Z</time>
      </trkpt>
      <trkpt lat="46.96338" lon="0.69543">
        <ele>44</ele>
        <time>2023-07-04T23:42:20Z</time>
      </trkpt>
      <trkpt lat="46.96526" lon="0.6954">
        <ele>44</ele>
        <time>2023-07-04T23:44:50Z</time>
      </trkpt>
      <trkpt lat="46.96836" lon="0.69616">
        <ele>46</ele>
        <time>2023-07-04T23:49:02Z</time>
      </trkpt>
      <trkpt lat="46.97099" lon="0.69572">
        <ele>49</ele>
        <time>2023-07-04T23:52:34Z</time>
      </trkpt>
      <trkpt lat="46.97195" lon="0.69605">
        <ele>48</ele>
        <time>2023-07-04T23:53:53Z</time>
      </trkpt>
      <trkpt lat="46.97213" lon="0.69536">
        <ele>46</ele>
        <time>2023-07-04T23:54:33Z</time>
      </trkpt>
      <trkpt lat="46.97161" lon="0.69269">
        <ele>48</ele>
        <time>2023-07-04T23:57:05Z</time>
      </trkpt>
      <trkpt lat="46.97247" lon="0.69183">
        <ele>46</ele>
        <time>2023-07-04T23:58:28Z</time>
      </trkpt>
      <trkpt lat="46.97326" lon="0.69251">
        <ele>43</ele>
        <time>2023-07-04T23:59:41Z</time>
      </trkpt>
      <trkpt lat="46.97415" lon="0.691">
        <ele>43</ele>
        <time>2023-07-05T00:01:30Z</time>
      </trkpt>
      <trkpt lat="46.97602" lon="0.68428">
        <ele>44</ele>
        <time>2023-07-05T00:08:07Z</time>
      </trkpt>
      <trkpt lat="46.97525" lon="0.68309">
        <ele>46</ele>
        <time>2023-07-05T00:09:36Z</time>
      </trkpt>
      <trkpt lat="46.97599" lon="0.6797">
        <ele>46</ele>
        <time>2023-07-05T00:12:51Z</time>
      </trkpt>
      <trkpt lat="46.97688" lon="0.67764">
        <ele>45</ele>
        <time>2023-07-05T00:15:04Z</time>
      </trkpt>
      <trkpt lat="46.97621" lon="0.67616">
        <ele>44</ele>
        <time>2023-07-05T00:16:41Z</time>
      </trkpt>
      <trkpt lat="46.97703" lon="0.66819">
        <ele>44</ele>
        <time>2023-07-05T00:24:01Z</time>
      </trkpt>
      <trkpt lat="46.97695" lon="0.66714">
        <ele>45</ele>
        <time>2023-07-05T00:24:59Z</time>
      </trkpt>
      <trkpt lat="46.97757" lon="0.66194">
        <ele>46</ele>
        <time>2023-07-05T00:29:48Z</time>
      </trkpt>
      <trkpt lat="46.97705" lon="0.65992">
        <ele>47</ele>
        <time>2023-07-05T00:31:46Z</time>
      </trkpt>
      <trkpt lat="46.97722" lon="0.65862">
        <ele>47</ele>
        <time>2023-07-05T00:32:58Z</time>
      </trkpt>
      <trkpt lat="46.97695" lon="0.65761">
        <ele>49</ele>
        <time>2023-07-05T00:33:57Z</time>
      </trkpt>
      <trkpt lat="46.9768" lon="0.65491">
        <ele>52</ele>
        <time>2023-07-05T00:36:25Z</time>
      </trkpt>
      <trkpt lat="46.97555" lon="0.6522">
        <ele>69</ele>
        <time>2023-07-05T00:39:24Z</time>
      </trkpt>
      <trkpt lat="46.97427" lon="0.65137">
        <ele>82</ele>
        <time>2023-07-05T00:41:16Z</time>
      </trkpt>
      <trkpt lat="46.9719" lon="0.65278">
        <ele>96</ele>
        <time>2023-07-05T00:44:41Z</time>
      </trkpt>
      <trkpt lat="46.96868" lon="0.6513">
        <ele>103</ele>
        <time>2023-07-05T00:49:11Z</time>
      </trkpt>
      <trkpt lat="46.96535" lon="0.64928">
        <ele>109</ele>
        <time>2023-07-05T00:53:59Z</time>
      </trkpt>
      <trkpt lat="46.964" lon="0.64675">
        <ele>109</ele>
        <time>2023-07-05T00:56:55Z</time>
      </trkpt>
      <trkpt lat="46.96481" lon="0.64578">
        <ele>108</ele>
        <time>2023-07-05T00:58:19Z</time>
      </trkpt>
      <trkpt lat="46.967" lon="0.64145">
        <ele>105</ele>
        <time>2023-07-05T01:03:13Z</time>
      </trkpt>
      <trkpt lat="46.96819" lon="0.63968">
        <ele>106</ele>
        <time>2023-07-05T01:05:29Z</time>
      </trkpt>
      <trkpt lat="46.97094" lon="0.63643">
        <ele>109</ele>
        <time>2023-07-05T01:10:12Z</time>
      </trkpt>
      <trkpt lat="46.97282" lon="0.63535">
        <ele>109</ele>
        <time>2023-07-05T01:12:53Z</time>
      </trkpt>
      <trkpt lat="46.97412" lon="0.62766">
        <ele>112</ele>
        <time>2023-07-05T01:20:06Z</time>
      </trkpt>
      <trkpt lat="46.9741" lon="0.62633">
        <ele>112</ele>
        <time>2023-07-05T01:21:19Z</time>
      </trkpt>
      <trkpt lat="46.97488" lon="0.62477">
        <ele>111</ele>
        <time>2023-07-05T01:23:05Z</time>
      </trkpt>
      <trkpt lat="46.97346" lon="0.6155">
        <ele>76</ele>
        <time>2023-07-05T01:31:44Z</time>
      </trkpt>
      <trkpt lat="46.97284" lon="0.61377">
        <ele>70</ele>
        <time>2023-07-05T01:33:30Z</time>
      </trkpt>
      <trkpt lat="46.97272" lon="0.61222">
        <ele>69</ele>
        <time>2023-07-05T01:34:56Z</time>
      </trkpt>
      <trkpt lat="46.97375" lon="0.6085">
        <ele>51</ele>
        <time>2023-07-05T01:38:35Z</time>
      </trkpt>
      <trkpt lat="46.97328" lon="0.60485">
        <ele>47</ele>
        <time>2023-07-05T01:41:58Z</time>
      </trkpt>
      <trkpt lat="46.97386" lon="0.60449">
        <ele>48</ele>
        <time>2023-07-05T01:42:48Z</time>
      </trkpt>
      <trkpt lat="46.97355" lon="0.60285">
        <ele>48</ele>
        <time>2023-07-05T01:44:21Z</time>
      </trkpt>
      <trkpt lat="46.97429" lon="0.60228">
        <ele>49</ele>
        <time>2023-07-05T01:45:28Z</time>
      </trkpt>
      <trkpt lat="46.97408" lon="0.60182">
        <ele>49</ele>
        <time>2023-07-05T01:45:59Z</time>
      </trkpt>
      <trkpt lat="46.97375" lon="0.6016">
        <ele>47</ele>
        <time>2023-07-05T01:46:28Z</time>
      </trkpt>
      <trkpt lat="46.9734" lon="0.60191">
        <ele>45</ele>
        <time>2023-07-05T01:47:00Z</time>
      </trkpt>
      <trkpt lat="46.97167" lon="0.60237">
        <ele>44</ele>
        <time>2023-07-05T01:49:21Z</time>
      </trkpt>
      <trkpt lat="46.97069" lon="0.60237">
        <ele>41</ele>
        <time>2023-07-05T01:50:40Z</time>
      </trkpt>
      <trkpt lat="46.97051" lon="0.60276">
        <ele>43</ele>
        <time>2023-07-05T01:51:05Z</time>
      </trkpt>
      <trkpt lat="46.97028" lon="0.60023">
        <ele>42</ele>
        <time>2023-07-05T01:53:25Z</time>
      </trkpt>
      <trkpt lat="46.96962" lon="0.59822">
        <ele>42</ele>
        <time>2023-07-05T01:55:27Z</time>
      </trkpt>
      <trkpt lat="46.97179" lon="0.5969">
        <ele>42</ele>
        <time>2023-07-05T01:58:35Z</time>
      </trkpt>
      <trkpt lat="46.97238" lon="0.59569">
        <ele>42</ele>
        <time>2023-07-05T01:59:56Z</time>
      </trkpt>
      <trkpt lat="46.97394" lon="0.59346">
        <ele>42</ele>
        <time>2023-07-05T02:02:50Z</time>
      </trkpt>
      <trkpt lat="46.97473" lon="0.59175">
        <ele>41</ele>
        <time>2023-07-05T02:04:43Z</time>
      </trkpt>
      <trkpt lat="46.97596" lon="0.58768">
        <ele>42</ele>
        <time>2023-07-05T02:08:46Z</time>
      </trkpt>
      <trkpt lat="46.97634" lon="0.58625">
        <ele>41</ele>
        <time>2023-07-05T02:10:10Z</time>
      </trkpt>
      <trkpt lat="46.97691" lon="0.58381">
        <ele>41</ele>
        <time>2023-07-05T02:12:31Z</time>
      </trkpt>
      <trkpt lat="46.9779" lon="0.58036">
        <ele>46</ele>
        <time>2023-07-05T02:15:56Z</time>
      </trkpt>
      <trkpt lat="46.97757" lon="0.5792">
        <ele>47</ele>
        <time>2023-07-05T02:17:04Z</time>
      </trkpt>
      <trkpt lat="46.97851" lon="0.57849">
        <ele>51</ele>
        <time>2023-07-05T02:18:29Z</time>
      </trkpt>
      <trkpt lat="46.97865" lon="0.578">
        <ele>53</ele>
        <time>2023-07-05T02:18:58Z</time>
      </trkpt>
      <trkpt lat="46.97865" lon="0.57756">
        <ele>55</ele>
        <time>2023-07-05T02:19:22Z</time>
      </trkpt>
      <trkpt lat="46.97823" lon="0.57737">
        <ele>57</ele>
        <time>2023-07-05T02:19:57Z</time>
      </trkpt>
      <trkpt lat="46.97734" lon="0.57767">
        <ele>53</ele>
        <time>2023-07-05T02:21:10Z</time>
      </trkpt>
      <trkpt lat="46.97707" lon="0.57585">
        <ele>66</ele>
        <time>2023-07-05T02:22:52Z</time>
      </trkpt>
      <trkpt lat="46.97648" lon="0.57519">
        <ele>66</ele>
        <time>2023-07-05T02:23:52Z</time>
      </trkpt>
      <trkpt lat="46.97578" lon="0.57473">
        <ele>66</ele>
        <time>2023-07-05T02:24:53Z</time>
      </trkpt>
      <trkpt lat="46.97533" lon="0.57451">
        <ele>66</ele>
        <time>2023-07-05T02:25:31Z</time>
      </trkpt>
      <trkpt lat="46.97468" lon="0.57385">
        <ele>68</ele>
        <time>2023-07-05T02:26:34Z</time>
      </trkpt>
      <trkpt lat="46.9744" lon="0.57229">
        <ele>84</ele>
        <time>2023-07-05T02:28:02Z</time>
      </trkpt>
      <trkpt lat="46.97313" lon="0.56949">
        <ele>89</ele>
        <time>2023-07-05T02:31:06Z</time>
      </trkpt>
      <trkpt lat="46.97363" lon="0.56901">
        <ele>89</ele>
        <time>2023-07-05T02:31:54Z</time>
      </trkpt>
      <trkpt lat="46.97562" lon="0.56829">
        <ele>89</ele>
        <time>2023-07-05T02:34:38Z</time>
      </trkpt>
      <trkpt lat="46.97683" lon="0.56887">
        <ele>84</ele>
        <time>2023-07-05T02:36:20Z</time>
      </trkpt>
      <trkpt lat="46.97548" lon="0.56411">
        <ele>87</ele>
        <time>2023-07-05T02:41:02Z</time>
      </trkpt>
      <trkpt lat="46.97896" lon="0.56195">
        <ele>63</ele>
        <time>2023-07-05T02:46:04Z</time>
      </trkpt>
      <trkpt lat="46.9798" lon="0.56165">
        <ele>68</ele>
        <time>2023-07-05T02:47:13Z</time>
      </trkpt>
      <trkpt lat="46.97972" lon="0.56127">
        <ele>70</ele>
        <time>2023-07-05T02:47:35Z</time>
      </trkpt>
      <trkpt lat="46.97982" lon="0.56015">
        <ele>74</ele>
        <time>2023-07-05T02:48:37Z</time>
      </trkpt>
      <trkpt lat="46.97948" lon="0.56017">
        <ele>69</ele>
        <time>2023-07-05T02:49:04Z</time>
      </trkpt>
      <trkpt lat="46.97869" lon="0.55712">
        <ele>73</ele>
        <time>2023-07-05T02:52:02Z</time>
      </trkpt>
      <trkpt lat="46.97824" lon="0.55588">
        <ele>76</ele>
        <time>2023-07-05T02:53:19Z</time>
      </trkpt>
      <trkpt lat="46.97916" lon="0.55546">
        <ele>83</ele>
        <time>2023-07-05T02:54:36Z</time>
      </trkpt>
      <trkpt lat="46.98024" lon="0.55583">
        <ele>87</ele>
        <time>2023-07-05T02:56:05Z</time>
      </trkpt>
      <trkpt lat="46.98261" lon="0.5558">
        <ele>102</ele>
        <time>2023-07-05T02:59:15Z</time>
      </trkpt>
      <trkpt lat="46.9841" lon="0.55481">
        <ele>111</ele>
        <time>2023-07-05T03:01:26Z</time>
      </trkpt>
      <trkpt lat="46.98571" lon="0.5544">
        <ele>114</ele>
        <time>2023-07-05T03:03:37Z</time>
      </trkpt>
      <trkpt lat="46.98629" lon="0.55662">
        <ele>112</ele>
        <time>2023-07-05T03:05:46Z</time>
      </trkpt>
      <trkpt lat="46.98707" lon="0.55855">
        <ele>107</ele>
        <time>2023-07-05T03:07:49Z</time>
      </trkpt>
      <trkpt lat="46.98807" lon="0.5608">
        <ele>103</ele>
        <time>2023-07-05T03:10:16Z</time>
      </trkpt>
      <trkpt lat="46.98832" lon="0.56224">
        <ele>97</ele>
        <time>2023-07-05T03:11:37Z</time>
      </trkpt>
      <trkpt lat="46.98798" lon="0.56376">
        <ele>91</ele>
        <time>2023-07-05T03:13:04Z</time>
      </trkpt>
      <trkpt lat="46.98808" lon="0.56579">
        <ele>79</ele>
        <time>2023-07-05T03:14:55Z</time>
      </trkpt>
      <trkpt lat="46.98836" lon="0.56617">
        <ele>78</ele>
        <time>2023-07-05T03:15:26Z</time>
      </trkpt>
      <trkpt lat="46.98877" lon="0.56631">
        <ele>75</ele>
        <time>2023-07-05T03:16:00Z</time>
      </trkpt>
      <trkpt lat="46.99057" lon="0.56797">
        <ele>51</ele>
        <time>2023-07-05T03:18:50Z</time>
      </trkpt>
      <trkpt lat="46.99145" lon="0.56942">
        <ele>45</ele>
        <time>2023-07-05T03:20:36Z</time>
      </trkpt>
      <trkpt lat="46.99185" lon="0.57043">
        <ele>44</ele>
        <time>2023-07-05T03:21:40Z</time>
      </trkpt>
      <trkpt lat="46.99284" lon="0.5703">
        <ele>44</ele>
        <time>2023-07-05T03:22:59Z</time>
      </trkpt>
      <trkpt lat="46.99221" lon="0.56811">
        <ele>45</ele>
        <time>2023-07-05T03:25:09Z</time>
      </trkpt>
      <trkpt lat="46.99223" lon="0.56702">
        <ele>50</ele>
        <time>2023-07-05T03:26:09Z</time>
      </trkpt>
      <trkpt lat="46.99246" lon="0.56665">
        <ele>51</ele>
        <time>2023-07-05T03:26:36Z</time>
      </trkpt>
      <trkpt lat="46.99432" lon="0.56516">
        <ele>53</ele>
        <time>2023-07-05T03:29:26Z</time>
      </trkpt>
      <trkpt lat="46.99359" lon="0.56299">
        <ele>79</ele>
        <time>2023-07-05T03:31:38Z</time>
      </trkpt>
      <trkpt lat="46.99472" lon="0.56233">
        <ele>77</ele>
        <time>2023-07-05T03:33:15Z</time>
      </trkpt>
      <trkpt lat="46.99749" lon="0.5605">
        <ele>73</ele>
        <time>2023-07-05T03:37:18Z</time>
      </trkpt>
      <trkpt lat="46.99784" lon="0.55999">
        <ele>75</ele>
        <time>2023-07-05T03:37:58Z</time>
      </trkpt>
      <trkpt lat="46.99791" lon="0.55957">
        <ele>79</ele>
        <time>2023-07-05T03:38:21Z</time>
      </trkpt>
      <trkpt lat="46.99949" lon="0.55671">
        <ele>69</ele>
        <time>2023-07-05T03:41:42Z</time>
      </trkpt>
      <trkpt lat="47.00012" lon="0.55641">
        <ele>62</ele>
        <time>2023-07-05T03:42:36Z</time>
      </trkpt>
      <trkpt lat="47.00074" lon="0.5573">
        <ele>57</ele>
        <time>2023-07-05T03:43:45Z</time>
      </trkpt>
      <trkpt lat="47.00118" lon="0.55606">
        <ele>54</ele>
        <time>2023-07-05T03:45:01Z</time>
      </trkpt>
      <trkpt lat="47.0001" lon="0.5544">
        <ele>57</ele>
        <time>2023-07-05T03:47:07Z</time>
      </trkpt>
      <trkpt lat="46.99974" lon="0.55355">
        <ele>55</ele>
        <time>2023-07-05T03:48:01Z</time>
      </trkpt>
      <trkpt lat="46.99945" lon="0.55206">
        <ele>51</ele>
        <time>2023-07-05T03:49:26Z</time>
      </trkpt>
      <trkpt lat="46.99902" lon="0.54938">
        <ele>51</ele>
        <time>2023-07-05T03:51:56Z</time>
      </trkpt>
      <trkpt lat="46.99888" lon="0.54781">
        <ele>48</ele>
        <time>2023-07-05T03:53:23Z</time>
      </trkpt>
      <trkpt lat="47.00504" lon="0.54546">
        <ele>84</ele>
        <time>2023-07-05T04:01:52Z</time>
      </trkpt>
      <trkpt lat="47.00629" lon="0.54637">
        <ele>94</ele>
        <time>2023-07-05T04:03:44Z</time>
      </trkpt>
      <trkpt lat="47.00695" lon="0.54527">
        <ele>100</ele>
        <time>2023-07-05T04:05:04Z</time>
      </trkpt>
      <trkpt lat="47.00891" lon="0.54297">
        <ele>109</ele>
        <time>2023-07-05T04:08:25Z</time>
      </trkpt>
      <trkpt lat="47.00956" lon="0.54278">
        <ele>110</ele>
        <time>2023-07-05T04:09:18Z</time>
      </trkpt>
      <trkpt lat="47.01057" lon="0.54214">
        <ele>108</ele>
        <time>2023-07-05T04:10:46Z</time>
      </trkpt>
      <trkpt lat="47.01088" lon="0.54201">
        <ele>106</ele>
        <time>2023-07-05T04:11:12Z</time>
      </trkpt>
      <trkpt lat="47.01145" lon="0.54106">
        <ele>104</ele>
        <time>2023-07-05T04:12:21Z</time>
      </trkpt>
      <trkpt lat="47.01289" lon="0.54299">
        <ele>99</ele>
        <time>2023-07-05T04:14:57Z</time>
      </trkpt>
      <trkpt lat="47.01321" lon="0.54413">
        <ele>87</ele>
        <time>2023-07-05T04:16:05Z</time>
      </trkpt>
      <trkpt lat="47.0133" lon="0.54544">
        <ele>69</ele>
        <time>2023-07-05T04:17:16Z</time>
      </trkpt>
      <trkpt lat="47.0133" lon="0.54683">
        <ele>61</ele>
        <time>2023-07-05T04:18:32Z</time>
      </trkpt>
      <trkpt lat="47.01395" lon="0.54961">
        <ele>47</ele>
        <time>2023-07-05T04:21:13Z</time>
      </trkpt>
      <trkpt lat="47.01446" lon="0.54884">
        <ele>54</ele>
        <time>2023-07-05T04:22:11Z</time>
      </trkpt>
      <trkpt lat="47.01517" lon="0.54814">
        <ele>64</ele>
        <time>2023-07-05T04:23:20Z</time>
      </trkpt>
      <trkpt lat="47.01565" lon="0.54911">
        <ele>53</ele>
        <time>2023-07-05T04:24:25Z</time>
      </trkpt>
      <trkpt lat="47.01664" lon="0.54888">
        <ele>52</ele>
        <time>2023-07-05T04:25:46Z</time>
      </trkpt>
      <trkpt lat="47.01845" lon="0.54739">
        <ele>51</ele>
        <time>2023-07-05T04:28:32Z</time>
      </trkpt>
      <trkpt lat="47.0199" lon="0.54689">
        <ele>47</ele>
        <time>2023-07-05T04:30:31Z</time>
      </trkpt>
      <trkpt lat="47.01991" lon="0.54642">
        <ele>51</ele>
        <time>2023-07-05T04:30:57Z</time>
      </trkpt>
      <trkpt lat="47.02043" lon="0.5455">
        <ele>64</ele>
        <time>2023-07-05T04:32:02Z</time>
      </trkpt>
      <trkpt lat="47.02093" lon="0.54485">
        <ele>74</ele>
        <time>2023-07-05T04:32:55Z</time>
      </trkpt>
      <trkpt lat="47.02155" lon="0.54364">
        <ele>92</ele>
        <time>2023-07-05T04:34:18Z</time>
      </trkpt>
      <trkpt lat="47.022" lon="0.54313">
        <ele>102</ele>
        <time>2023-07-05T04:35:04Z</time>
      </trkpt>
      <trkpt lat="47.02215" lon="0.54255">
        <ele>106</ele>
        <time>2023-07-05T04:35:37Z</time>
      </trkpt>
      <trkpt lat="47.02213" lon="0.54181">
        <ele>107</ele>
        <time>2023-07-05T04:36:18Z</time>
      </trkpt>
      <trkpt lat="47.02272" lon="0.54049">
        <ele>113</ele>
        <time>2023-07-05T04:37:44Z</time>
      </trkpt>
      <trkpt lat="47.02367" lon="0.54001">
        <ele>112</ele>
        <time>2023-07-05T04:39:04Z</time>
      </trkpt>
      <trkpt lat="47.02408" lon="0.53925">
        <ele>112</ele>
        <time>2023-07-05T04:39:57Z</time>
      </trkpt>
      <trkpt lat="47.02465" lon="0.53981">
        <ele>112</ele>
        <time>2023-07-05T04:40:52Z</time>
      </trkpt>
      <trkpt lat="47.02564" lon="0.54043">
        <ele>115</ele>
        <time>2023-07-05T04:42:18Z</time>
      </trkpt>
      <trkpt lat="47.02692" lon="0.54042">
        <ele>113</ele>
        <time>2023-07-05T04:44:01Z</time>
      </trkpt>
      <trkpt lat="47.02766" lon="0.53991">
        <ele>107</ele>
        <time>2023-07-05T04:45:06Z</time>
      </trkpt>
      <trkpt lat="47.02821" lon="0.53957">
        <ele>101</ele>
        <time>2023-07-05T04:45:54Z</time>
      </trkpt>
      <trkpt lat="47.02928" lon="0.53804">
        <ele>77</ele>
        <time>2023-07-05T04:47:54Z</time>
      </trkpt>
      <trkpt lat="47.02954" lon="0.53791">
        <ele>74</ele>
        <time>2023-07-05T04:48:16Z</time>
      </trkpt>
      <trkpt lat="47.03024" lon="0.53821">
        <ele>71</ele>
        <time>2023-07-05T04:49:14Z</time>
      </trkpt>
      <trkpt lat="47.0307" lon="0.53819">
        <ele>67</ele>
        <time>2023-07-05T04:49:51Z</time>
      </trkpt>
      <trkpt lat="47.03129" lon="0.53772">
        <ele>62</ele>
        <time>2023-07-05T04:50:45Z</time>
      </trkpt>
      <trkpt lat="47.03205" lon="0.53801">
        <ele>61</ele>
        <time>2023-07-05T04:51:48Z</time>
      </trkpt>
      <trkpt lat="47.03321" lon="0.53902">
        <ele>55</ele>
        <time>2023-07-05T04:53:36Z</time>
      </trkpt>
      <trkpt lat="47.03401" lon="0.53764">
        <ele>67</ele>
        <time>2023-07-05T04:55:15Z</time>
      </trkpt>
      <trkpt lat="47.03534" lon="0.53643">
        <ele>82</ele>
        <time>2023-07-05T04:57:20Z</time>
      </trkpt>
      <trkpt lat="47.03635" lon="0.53446">
        <ele>85</ele>
        <time>2023-07-05T04:59:34Z</time>
      </trkpt>
      <trkpt lat="47.03575" lon="0.53187">
        <ele>82</ele>
        <time>2023-07-05T05:02:04Z</time>
      </trkpt>
      <trkpt lat="47.03711" lon="0.53312">
        <ele>70</ele>
        <time>2023-07-05T05:04:12Z</time>
      </trkpt>
      <trkpt lat="47.03832" lon="0.53454">
        <ele>62</ele>
        <time>2023-07-05T05:06:16Z</time>
      </trkpt>
      <trkpt lat="47.03998" lon="0.53608">
        <ele>56</ele>
        <time>2023-07-05T05:08:53Z</time>
      </trkpt>
      <trkpt lat="47.04179" lon="0.53713">
        <ele>43</ele>
        <time>2023-07-05T05:11:29Z</time>
      </trkpt>
      <trkpt lat="47.04223" lon="0.53832">
        <ele>41</ele>
        <time>2023-07-05T05:12:43Z</time>
      </trkpt>
      <trkpt lat="47.04255" lon="0.53863">
        <ele>42</ele>
        <time>2023-07-05T05:13:14Z</time>
      </trkpt>
      <trkpt lat="47.04258" lon="0.54031">
        <ele>42</ele>
        <time>2023-07-05T05:14:46Z</time>
      </trkpt>
      <trkpt lat="47.04322" lon="0.54043">
        <ele>41</ele>
        <time>2023-07-05T05:15:37Z</time>
      </trkpt>
      <trkpt lat="47.0442" lon="0.5405">
        <ele>42</ele>
        <time>2023-07-05T05:16:56Z</time>
      </trkpt>
      <trkpt lat="47.04678" lon="0.53979">
        <ele>40</ele>
        <time>2023-07-05T05:20:26Z</time>
      </trkpt>
      <trkpt lat="47.05017" lon="0.54101">
        <ele>41</ele>
        <time>2023-07-05T05:25:05Z</time>
      </trkpt>
      <trkpt lat="47.05045" lon="0.54165">
        <ele>40</ele>
        <time>2023-07-05T05:25:47Z</time>
      </trkpt>
      <trkpt lat="47.05009" lon="0.54376">
        <ele>37</ele>
        <time>2023-07-05T05:27:46Z</time>
      </trkpt>
      <trkpt lat="47.04974" lon="0.54736">
        <ele>41</ele>
        <time>2023-07-05T05:31:04Z</time>
      </trkpt>
      <trkpt lat="47.05056" lon="0.54728">
        <ele>41</ele>
        <time>2023-07-05T05:32:10Z</time>
      </trkpt>
      <trkpt lat="47.05152" lon="0.54983">
        <ele>42</ele>
        <time>2023-07-05T05:34:49Z</time>
      </trkpt>
      <trkpt lat="47.05235" lon="0.55032">
        <ele>43</ele>
        <time>2023-07-05T05:36:00Z</time>
      </trkpt>
      <trkpt lat="47.0527" lon="0.55134">
        <ele>42</ele>
        <time>2023-07-05T05:37:03Z</time>
      </trkpt>
      <trkpt lat="47.05451" lon="0.55129">
        <ele>41</ele>
        <time>2023-07-05T05:39:28Z</time>
      </trkpt>
      <trkpt lat="47.05654" lon="0.55134">
        <ele>41</ele>
        <time>2023-07-05T05:42:10Z</time>
      </trkpt>
      <trkpt lat="47.06548" lon="0.55208">
        <ele>41</ele>
        <time>2023-07-05T05:54:07Z</time>
      </trkpt>
      <trkpt lat="47.06718" lon="0.551">
        <ele>40</ele>
        <time>2023-07-05T05:56:35Z</time>
      </trkpt>
      <trkpt lat="47.06763" lon="0.55225">
        <ele>41</ele>
        <time>2023-07-05T05:57:53Z</time>
      </trkpt>
      <trkpt lat="47.06763" lon="0.55277">
        <ele>41</ele>
        <time>2023-07-05T05:58:21Z</time>
      </trkpt>
      <trkpt lat="47.06824" lon="0.55547">
        <ele>43</ele>
        <time>2023-07-05T06:00:56Z</time>
      </trkpt>
      <trkpt lat="47.06991" lon="0.55866">
        <ele>44</ele>
        <time>2023-07-05T06:04:35Z</time>
      </trkpt>
      <trkpt lat="47.07015" lon="0.56022">
        <ele>45</ele>
        <time>2023-07-05T06:06:03Z</time>
      </trkpt>
      <trkpt lat="47.07066" lon="0.56157">
        <ele>53</ele>
        <time>2023-07-05T06:07:27Z</time>
      </trkpt>
      <trkpt lat="47.07092" lon="0.56254">
        <ele>57</ele>
        <time>2023-07-05T06:08:24Z</time>
      </trkpt>
      <trkpt lat="47.07177" lon="0.56504">
        <ele>62</ele>
        <time>2023-07-05T06:10:56Z</time>
      </trkpt>
      <trkpt lat="47.07314" lon="0.5643">
        <ele>62</ele>
        <time>2023-07-05T06:12:53Z</time>
      </trkpt>
      <trkpt lat="47.07371" lon="0.56424">
        <ele>61</ele>
        <time>2023-07-05T06:13:39Z</time>
      </trkpt>
      <trkpt lat="47.07543" lon="0.56476">
        <ele>56</ele>
        <time>2023-07-05T06:15:59Z</time>
      </trkpt>
      <trkpt lat="47.07584" lon="0.56476">
        <ele>54</ele>
        <time>2023-07-05T06:16:32Z</time>
      </trkpt>
      <trkpt lat="47.07634" lon="0.5642">
        <ele>49</ele>
        <time>2023-07-05T06:17:22Z</time>
      </trkpt>
      <trkpt lat="47.07687" lon="0.56397">
        <ele>46</ele>
        <time>2023-07-05T06:18:07Z</time>
      </trkpt>
      <trkpt lat="47.07719" lon="0.56444">
        <ele>46</ele>
        <time>2023-07-05T06:18:43Z</time>
      </trkpt>
      <trkpt lat="47.07848" lon="0.56431">
        <ele>46</ele>
        <time>2023-07-05T06:20:27Z</time>
      </trkpt>
      <trkpt lat="47.07881" lon="0.56407">
        <ele>48</ele>
        <time>2023-07-05T06:20:56Z</time>
      </trkpt>
      <trkpt lat="47.07849" lon="0.56218">
        <ele>48</ele>
        <time>2023-07-05T06:22:42Z</time>
      </trkpt>
      <trkpt lat="47.07939" lon="0.56107">
        <ele>55</ele>
        <time>2023-07-05T06:24:16Z</time>
      </trkpt>
      <trkpt lat="47.08028" lon="0.55965">
        <ele>61</ele>
        <time>2023-07-05T06:26:02Z</time>
      </trkpt>
      <trkpt lat="47.08047" lon="0.55911">
        <ele>61</ele>
        <time>2023-07-05T06:26:35Z</time>
      </trkpt>
      <trkpt lat="47.08075" lon="0.5564">
        <ele>64</ele>
        <time>2023-07-05T06:29:04Z</time>
      </trkpt>
      <trkpt lat="47.08074" lon="0.5559">
        <ele>63</ele>
        <time>2023-07-05T06:29:31Z</time>
      </trkpt>
      <trkpt lat="47.07987" lon="0.55243">
        <ele>61</ele>
        <time>2023-07-05T06:32:53Z</time>
      </trkpt>
      <trkpt lat="47.08122" lon="0.55216">
        <ele>59</ele>
        <time>2023-07-05T06:34:42Z</time>
      </trkpt>
      <trkpt lat="47.08359" lon="0.55143">
        <ele>55</ele>
        <time>2023-07-05T06:37:56Z</time>
      </trkpt>
      <trkpt lat="47.08664" lon="0.54625">
        <ele>58</ele>
        <time>2023-07-05T06:44:09Z</time>
      </trkpt>
      <trkpt lat="47.08648" lon="0.54546">
        <ele>59</ele>
        <time>2023-07-05T06:44:54Z</time>
      </trkpt>
      <trkpt lat="47.08573" lon="0.54342">
        <ele>57</ele>
        <time>2023-07-05T06:47:01Z</time>
      </trkpt>
      <trkpt lat="47.08521" lon="0.54241">
        <ele>55</ele>
        <time>2023-07-05T06:48:10Z</time>
      </trkpt>
      <trkpt lat="47.08478" lon="0.54176">
        <ele>54</ele>
        <time>2023-07-05T06:48:59Z</time>
      </trkpt>
      <trkpt lat="47.08442" lon="0.54114">
        <ele>52</ele>
        <time>2023-07-05T06:49:44Z</time>
      </trkpt>
      <trkpt lat="47.0842" lon="0.54041">
        <ele>50</ele>
        <time>2023-07-05T06:50:27Z</time>
      </trkpt>
      <trkpt lat="47.08421" lon="0.53966">
        <ele>47</ele>
        <time>2023-07-05T06:51:08Z</time>
      </trkpt>
      <trkpt lat="47.08436" lon="0.53893">
        <ele>45</ele>
        <time>2023-07-05T06:51:50Z</time>
      </trkpt>
      <trkpt lat="47.08466" lon="0.53837">
        <ele>44</ele>
        <time>2023-07-05T06:52:28Z</time>
      </trkpt>
      <trkpt lat="47.08537" lon="0.53805">
        <ele>45</ele>
        <time>2023-07-05T06:53:28Z</time>
      </trkpt>
      <trkpt lat="47.08458" lon="0.53687">
        <ele>42</ele>
        <time>2023-07-05T06:54:58Z</time>
      </trkpt>
      <trkpt lat="47.084" lon="0.53593">
        <ele>40</ele>
        <time>2023-07-05T06:56:07Z</time>
      </trkpt>
      <trkpt lat="47.08244" lon="0.53357">
        <ele>40</ele>
        <time>2023-07-05T06:59:07Z</time>
      </trkpt>
      <trkpt lat="47.08203" lon="0.53268">
        <ele>41</ele>
        <time>2023-07-05T07:00:05Z</time>
      </trkpt>
      <trkpt lat="47.08146" lon="0.53215">
        <ele>40</ele>
        <time>2023-07-05T07:00:59Z</time>
      </trkpt>
      <trkpt lat="47.08146" lon="0.53153">
        <ele>38</ele>
        <time>2023-07-05T07:01:33Z</time>
      </trkpt>
      <trkpt lat="47.08163" lon="0.53033">
        <ele>36</ele>
        <time>2023-07-05T07:02:40Z</time>
      </trkpt>
      <trkpt lat="47.082" lon="0.52938">
        <ele>37</ele>
        <time>2023-07-05T07:03:39Z</time>
      </trkpt>
      <trkpt lat="47.08243" lon="0.52742">
        <ele>37</ele>
        <time>2023-07-05T07:05:32Z</time>
      </trkpt>
      <trkpt lat="47.08538" lon="0.52074">
        <ele>33</ele>
        <time>2023-07-05T07:12:46Z</time>
      </trkpt>
      <trkpt lat="47.08676" lon="0.51776">
        <ele>37</ele>
        <time>2023-07-05T07:16:02Z</time>
      </trkpt>
      <trkpt lat="47.09017" lon="0.51259">
        <ele>37</ele>
        <time>2023-07-05T07:22:35Z</time>
      </trkpt>
      <trkpt lat="47.08959" lon="0.51193">
        <ele>34</ele>
        <time>2023-07-05T07:23:33Z</time>
      </trkpt>
      <trkpt lat="47.08959" lon="0.51142">
        <ele>33</ele>
        <time>2023-07-05T07:24:01Z</time>
      </trkpt>
      <trkpt lat="47.09022" lon="0.51073">
        <ele>35</ele>
        <time>2023-07-05T07:25:04Z</time>
      </trkpt>
      <trkpt lat="47.09091" lon="0.50963">
        <ele>32</ele>
        <time>2023-07-05T07:26:26Z</time>
      </trkpt>
      <trkpt lat="47.09175" lon="0.50911">
        <ele>33</ele>
        <time>2023-07-05T07:27:39Z</time>
      </trkpt>
      <trkpt lat="47.09194" lon="0.50879">
        <ele>33</ele>
        <time>2023-07-05T07:28:02Z</time>
      </trkpt>
      <trkpt lat="47.09241" lon="0.5084">
        <ele>34</ele>
        <time>2023-07-05T07:28:45Z</time>
      </trkpt>
      <trkpt lat="47.0932" lon="0.50766">
        <ele>34</ele>
        <time>2023-07-05T07:30:00Z</time>
      </trkpt>
      <trkpt lat="47.09514" lon="0.50491">
        <ele>36</ele>
        <time>2023-07-05T07:33:36Z</time>
      </trkpt>
      <trkpt lat="47.09538" lon="0.50435">
        <ele>35</ele>
        <time>2023-07-05T07:34:12Z</time>
      </trkpt>
      <trkpt lat="47.09609" lon="0.50361">
        <ele>36</ele>
        <time>2023-07-05T07:35:22Z</time>
      </trkpt>
      <trkpt lat="47.09784" lon="0.50092">
        <ele>36</ele>
        <time>2023-07-05T07:38:45Z</time>
      </trkpt>
      <trkpt lat="47.09821" lon="0.5001">
        <ele>37</ele>
        <time>2023-07-05T07:39:38Z</time>
      </trkpt>
      <trkpt lat="47.09865" lon="0.49953">
        <ele>36</ele>
        <time>2023-07-05T07:40:25Z</time>
      </trkpt>
      <trkpt lat="47.09902" lon="0.49881">
        <ele>34</ele>
        <time>2023-07-05T07:41:14Z</time>
      </trkpt>
      <trkpt lat="47.10009" lon="0.4976">
        <ele>35</ele>
        <time>2023-07-05T07:43:02Z</time>
      </trkpt>
      <trkpt lat="47.10147" lon="0.49628">
        <ele>33</ele>
        <time>2023-07-05T07:45:14Z</time>
      </trkpt>
      <trkpt lat="47.103" lon="0.49513">
        <ele>33</ele>
        <time>2023-07-05T07:47:32Z</time>
      </trkpt>
      <trkpt lat="47.10403" lon="0.49469">
        <ele>34</ele>
        <time>2023-07-05T07:48:58Z</time>
      </trkpt>
      <trkpt lat="47.10434" lon="0.49495">
        <ele>35</ele>
        <time>2023-07-05T07:49:26Z</time>
      </trkpt>
      <trkpt lat="47.10579" lon="0.4945">
        <ele>33</ele>
        <time>2023-07-05T07:51:25Z</time>
      </trkpt>
      <trkpt lat="47.10782" lon="0.49431">
        <ele>32</ele>
        <time>2023-07-05T07:54:08Z</time>
      </trkpt>
      <trkpt lat="47.10992" lon="0.49425">
        <ele>32</ele>
        <time>2023-07-05T07:56:56Z</time>
      </trkpt>
      <trkpt lat="47.11035" lon="0.49565">
        <ele>36</ele>
        <time>2023-07-05T07:58:20Z</time>
      </trkpt>
      <trkpt lat="47.11034" lon="0.49602">
        <ele>37</ele>
        <time>2023-07-05T07:58:40Z</time>
      </trkpt>
      <trkpt lat="47.11057" lon="0.49649">
        <ele>40</ele>
        <time>2023-07-05T07:59:11Z</time>
      </trkpt>
      <trkpt lat="47.11156" lon="0.49629">
        <ele>42</ele>
        <time>2023-07-05T08:00:31Z</time>
      </trkpt>
      <trkpt lat="47.1128" lon="0.49541">
        <ele>49</ele>
        <time>2023-07-05T08:02:22Z</time>
      </trkpt>
      <trkpt lat="47.11332" lon="0.49463">
        <ele>53</ele>
        <time>2023-07-05T08:03:21Z</time>
      </trkpt>
      <trkpt lat="47.11468" lon="0.49147">
        <ele>44</ele>
        <time>2023-07-05T08:06:45Z</time>
      </trkpt>
      <trkpt lat="47.11587" lon="0.48839">
        <ele>43</ele>
        <time>2023-07-05T08:09:58Z</time>
      </trkpt>
      <trkpt lat="47.11623" lon="0.48696">
        <ele>45</ele>
        <time>2023-07-05T08:11:21Z</time>
      </trkpt>
      <trkpt lat="47.11613" lon="0.48668">
        <ele>42</ele>
        <time>2023-07-05T08:11:38Z</time>
      </trkpt>
      <trkpt lat="47.11637" lon="0.48481">
        <ele>43</ele>
        <time>2023-07-05T08:13:22Z</time>
      </trkpt>
      <trkpt lat="47.11633" lon="0.48333">
        <ele>41</ele>
        <time>2023-07-05T08:14:43Z</time>
      </trkpt>
      <trkpt lat="47.11636" lon="0.48262">
        <ele>40</ele>
        <time>2023-07-05T08:15:21Z</time>
      </trkpt>
      <trkpt lat="47.11653" lon="0.48228">
        <ele>41</ele>
        <time>2023-07-05T08:15:44Z</time>
      </trkpt>
      <trkpt lat="47.1163" lon="0.48084">
        <ele>37</ele>
        <time>2023-07-05T08:17:05Z</time>
      </trkpt>
      <trkpt lat="47.11602" lon="0.47932">
        <ele>35</ele>
        <time>2023-07-05T08:18:31Z</time>
      </trkpt>
      <trkpt lat="47.116" lon="0.47846">
        <ele>35</ele>
        <time>2023-07-05T08:19:18Z</time>
      </trkpt>
      <trkpt lat="47.11556" lon="0.47592">
        <ele>36</ele>
        <time>2023-07-05T08:21:40Z</time>
      </trkpt>
      <trkpt lat="47.1156" lon="0.4751">
        <ele>36</ele>
        <time>2023-07-05T08:22:25Z</time>
      </trkpt>
      <trkpt lat="47.11536" lon="0.47443">
        <ele>34</ele>
        <time>2023-07-05T08:23:07Z</time>
      </trkpt>
      <trkpt lat="47.11552" lon="0.47256">
        <ele>37</ele>
        <time>2023-07-05T08:24:49Z</time>
      </trkpt>
      <trkpt lat="47.1154" lon="0.47145">
        <ele>35</ele>
        <time>2023-07-05T08:25:50Z</time>
      </trkpt>
      <trkpt lat="47.11517" lon="0.47035">
        <ele>35</ele>
        <time>2023-07-05T08:26:53Z</time>
      </trkpt>
      <trkpt lat="47.11519" lon="0.46948">
        <ele>35</ele>
        <time>2023-07-05T08:27:41Z</time>
      </trkpt>
      <trkpt lat="47.11586" lon="0.46647">
        <ele>34</ele>
        <time>2023-07-05T08:30:33Z</time>
      </trkpt>
      <trkpt lat="47.11519" lon="0.46602">
        <ele>33</ele>
        <time>2023-07-05T08:31:32Z</time>
      </trkpt>
      <trkpt lat="47.11523" lon="0.46499">
        <ele>31</ele>
        <time>2023-07-05T08:32:28Z</time>
      </trkpt>
      <trkpt lat="47.11604" lon="0.463">
        <ele>32</ele>
        <time>2023-07-05T08:34:35Z</time>
      </trkpt>
      <trkpt lat="47.11722" lon="0.46133">
        <ele>34</ele>
        <time>2023-07-05T08:36:46Z</time>
      </trkpt>
      <trkpt lat="47.11893" lon="0.45922">
        <ele>33</ele>
        <time>2023-07-05T08:39:45Z</time>
      </trkpt>
      <trkpt lat="47.11974" lon="0.45806">
        <ele>33</ele>
        <time>2023-07-05T08:41:15Z</time>
      </trkpt>
      <trkpt lat="47.12063" lon="0.45612">
        <ele>35</ele>
        <time>2023-07-05T08:43:23Z</time>
      </trkpt>
      <trkpt lat="47.12113" lon="0.45435">
        <ele>35</ele>
        <time>2023-07-05T08:45:07Z</time>
      </trkpt>
      <trkpt lat="47.12096" lon="0.45399">
        <ele>34</ele>
        <time>2023-07-05T08:45:31Z</time>
      </trkpt>
      <trkpt lat="47.1213" lon="0.45224">
        <ele>33</ele>
        <time>2023-07-05T08:47:10Z</time>
      </trkpt>
      <trkpt lat="47.12139" lon="0.44978">
        <ele>33</ele>
        <time>2023-07-05T08:49:24Z</time>
      </trkpt>
      <trkpt lat="47.12138" lon="0.44906">
        <ele>32</ele>
        <time>2023-07-05T08:50:04Z</time>
      </trkpt>
      <trkpt lat="47.12127" lon="0.44826">
        <ele>32</ele>
        <time>2023-07-05T08:50:48Z</time>
      </trkpt>
      <trkpt lat="47.12106" lon="0.44752">
        <ele>32</ele>
        <time>2023-07-05T08:51:32Z</time>
      </trkpt>
      <trkpt lat="47.12091" lon="0.44712">
        <ele>32</ele>
        <time>2023-07-05T08:51:57Z</time>
      </trkpt>
      <trkpt lat="47.12114" lon="0.4463">
        <ele>34</ele>
        <time>2023-07-05T08:52:45Z</time>
      </trkpt>
      <trkpt lat="47.12097" lon="0.44373">
        <ele>34</ele>
        <time>2023-07-05T08:55:06Z</time>
      </trkpt>
      <trkpt lat="47.12083" lon="0.44208">
        <ele>34</ele>
        <time>2023-07-05T08:56:36Z</time>
      </trkpt>
      <trkpt lat="47.1208" lon="0.44043">
        <ele>35</ele>
        <time>2023-07-05T08:58:06Z</time>
      </trkpt>
      <trkpt lat="47.12065" lon="0.44018">
        <ele>35</ele>
        <time>2023-07-05T08:58:24Z</time>
      </trkpt>
      <trkpt lat="47.12028" lon="0.44007">
        <ele>34</ele>
        <time>2023-07-05T08:58:55Z</time>
      </trkpt>
      <trkpt lat="47.11987" lon="0.43591">
        <ele>35</ele>
        <time>2023-07-05T09:02:44Z</time>
      </trkpt>
      <trkpt lat="47.11971" lon="0.43529">
        <ele>34</ele>
        <time>2023-07-05T09:03:20Z</time>
      </trkpt>
      <trkpt lat="47.11997" lon="0.43413">
        <ele>33</ele>
        <time>2023-07-05T09:04:26Z</time>
      </trkpt>
      <trkpt lat="47.11992" lon="0.43373">
        <ele>32</ele>
        <time>2023-07-05T09:04:48Z</time>
      </trkpt>
      <trkpt lat="47.12014" lon="0.43096">
        <ele>30</ele>
        <time>2023-07-05T09:07:20Z</time>
      </trkpt>
      <trkpt lat="47.12014" lon="0.43013">
        <ele>28</ele>
        <time>2023-07-05T09:08:06Z</time>
      </trkpt>
      <trkpt lat="47.12055" lon="0.42858">
        <ele>34</ele>
        <time>2023-07-05T09:09:36Z</time>
      </trkpt>
      <trkpt lat="47.12082" lon="0.42781">
        <ele>36</ele>
        <time>2023-07-05T09:10:23Z</time>
      </trkpt>
      <trkpt lat="47.12089" lon="0.42722">
        <ele>35</ele>
        <time>2023-07-05T09:10:56Z</time>
      </trkpt>
      <trkpt lat="47.121" lon="0.42664">
        <ele>34</ele>
        <time>2023-07-05T09:11:29Z</time>
      </trkpt>
      <trkpt lat="47.12131" lon="0.42647">
        <ele>35</ele>
        <time>2023-07-05T09:11:55Z</time>
      </trkpt>
      <trkpt lat="47.12129" lon="0.42537">
        <ele>34</ele>
        <time>2023-07-05T09:12:55Z</time>
      </trkpt>
      <trkpt lat="47.11888" lon="0.42422">
        <ele>35</ele>
        <time>2023-07-05T09:16:18Z</time>
      </trkpt>
      <trkpt lat="47.11957" lon="0.42101">
        <ele>39</ele>
        <time>2023-07-05T09:19:21Z</time>
      </trkpt>
      <trkpt lat="47.12031" lon="0.41863">
        <ele>32</ele>
        <time>2023-07-05T09:21:44Z</time>
      </trkpt>
      <trkpt lat="47.11751" lon="0.41736">
        <ele>36</ele>
        <time>2023-07-05T09:25:39Z</time>
      </trkpt>
      <trkpt lat="47.12119" lon="0.40455">
        <ele>38</ele>
        <time>2023-07-05T09:38:16Z</time>
      </trkpt>
      <trkpt lat="47.12171" lon="0.40221">
        <ele>40</ele>
        <time>2023-07-05T09:40:30Z</time>
      </trkpt>
      <trkpt lat="47.12259" lon="0.40304">
        <ele>36</ele>
        <time>2023-07-05T09:41:54Z</time>
      </trkpt>
      <trkpt lat="47.1251" lon="0.39495">
        <ele>37</ele>
        <time>2023-07-05T09:49:59Z</time>
      </trkpt>
      <trkpt lat="47.12387" lon="0.39358">
        <ele>40</ele>
        <time>2023-07-05T09:52:02Z</time>
      </trkpt>
      <trkpt lat="47.12571" lon="0.38893">
        <ele>42</ele>
        <time>2023-07-05T09:56:55Z</time>
      </trkpt>
      <trkpt lat="47.12664" lon="0.38965">
        <ele>41</ele>
        <time>2023-07-05T09:58:19Z</time>
      </trkpt>
      <trkpt lat="47.12826" lon="0.38745">
        <ele>35</ele>
        <time>2023-07-05T10:01:16Z</time>
      </trkpt>
      <trkpt lat="47.1302" lon="0.38218">
        <ele>33</ele>
        <time>2023-07-05T10:06:42Z</time>
      </trkpt>
      <trkpt lat="47.13322" lon="0.37077">
        <ele>33</ele>
        <time>2023-07-05T10:17:49Z</time>
      </trkpt>
      <trkpt lat="47.13474" lon="0.36287">
        <ele>33</ele>
        <time>2023-07-05T10:25:16Z</time>
      </trkpt>
      <trkpt lat="47.13666" lon="0.35006">
        <ele>34</ele>
        <time>2023-07-05T10:37:11Z</time>
      </trkpt>
      <trkpt lat="47.13695" lon="0.3427">
        <ele>35</ele>
        <time>2023-07-05T10:43:52Z</time>
      </trkpt>
      <trkpt lat="47.13546" lon="0.34252">
        <ele>34</ele>
        <time>2023-07-05T10:45:52Z</time>
      </trkpt>
      <trkpt lat="47.13543" lon="0.33891">
        <ele>34</ele>
        <time>2023-07-05T10:49:09Z</time>
      </trkpt>
      <trkpt lat="47.13737" lon="0.32978">
        <ele>35</ele>
        <time>2023-07-05T10:57:50Z</time>
      </trkpt>
      <trkpt lat="47.13339" lon="0.32808">
        <ele>36</ele>
        <time>2023-07-05T11:03:22Z</time>
      </trkpt>
      <trkpt lat="47.13472" lon="0.31733">
        <ele>36</ele>
        <time>2023-07-05T11:13:17Z</time>
      </trkpt>
      <trkpt lat="47.13546" lon="0.3108">
        <ele>36</ele>
        <time>2023-07-05T11:19:17Z</time>
      </trkpt>
      <trkpt lat="47.13531" lon="0.30073">
        <ele>40</ele>
        <time>2023-07-05T11:28:26Z</time>
      </trkpt>
      <trkpt lat="47.1359" lon="0.29268">
        <ele>38</ele>
        <time>2023-07-05T11:35:47Z</time>
      </trkpt>
      <trkpt lat="47.13661" lon="0.28914">
        <ele>36</ele>
        <time>2023-07-05T11:39:08Z</time>
      </trkpt>
      <trkpt lat="47.14167" lon="0.28839">
        <ele>34</ele>
        <time>2023-07-05T11:45:55Z</time>
      </trkpt>
      <trkpt lat="47.14373" lon="0.28575">
        <ele>34</ele>
        <time>2023-07-05T11:49:34Z</time>
      </trkpt>
      <trkpt lat="47.14486" lon="0.28362">
        <ele>34</ele>
        <time>2023-07-05T11:52:01Z</time>
      </trkpt>
      <trkpt lat="47.14559" lon="0.28357">
        <ele>33</ele>
        <time>2023-07-05T11:53:00Z</time>
      </trkpt>
      <trkpt lat="47.14721" lon="0.27897">
        <ele>35</ele>
        <time>2023-07-05T11:57:42Z</time>
      </trkpt>
      <trkpt lat="47.14996" lon="0.26832">
        <ele>37</ele>
        <time>2023-07-05T12:08:02Z</time>
      </trkpt>
      <trkpt lat="47.15156" lon="0.26045">
        <ele>37</ele>
        <time>2023-07-05T12:15:29Z</time>
      </trkpt>
      <trkpt lat="47.15406" lon="0.25418">
        <ele>32</ele>
        <time>2023-07-05T12:22:05Z</time>
      </trkpt>
      <trkpt lat="47.15551" lon="0.25161">
        <ele>32</ele>
        <time>2023-07-05T12:25:07Z</time>
      </trkpt>
      <trkpt lat="47.15811" lon="0.24717">
        <ele>35</ele>
        <time>2023-07-05T12:30:26Z</time>
      </trkpt>
      <trkpt lat="47.15865" lon="0.24579">
        <ele>30</ele>
        <time>2023-07-05T12:31:53Z</time>
      </trkpt>
      <trkpt lat="47.1599" lon="0.24533">
        <ele>31</ele>
        <time>2023-07-05T12:33:36Z</time>
      </trkpt>
      <trkpt lat="47.16196" lon="0.24331">
        <ele>34</ele>
        <time>2023-07-05T12:36:54Z</time>
      </trkpt>
      <trkpt lat="47.16402" lon="0.23826">
        <ele>33</ele>
        <time>2023-07-05T12:42:15Z</time>
      </trkpt>
      <trkpt lat="47.16378" lon="0.2357">
        <ele>34</ele>
        <time>2023-07-05T12:44:35Z</time>
      </trkpt>
    </trkseg>
  </trk>
</gpx>